デンバー の空港の天気 - METARとTAF

デンバー国際空港 ( KDEN / DEN ) - アメリカ コロラド州デンバー
飛行場実況気象(Metar)
観測時間09/24 19:53 MDT (09/25 01:53 UTC)
風向・風速南西 6m/s
視程10km以上
天気現象
全天の4割程度の雲 雲底高度 3350m
全天の8割程度の雲 雲底高度 4570m
気温21.7℃
湿度26%
気圧1006.8hPa
METARKDEN 250153Z 22011KT 10SM SCT110 BKN150 22/01 A2992 RMK AO2 PK WND 27026/0130 SLP068 T02170011
過去の天気等 Google飛行場航空写真 Wunderground天気予報

過去48時間のMETAR

飛行場予報(TAF)
発表時間: 9/24 18:19 MDT (9/25 00:19 UTC)
予報対象時間: 24日18時 MDT ~ 26日0時 MDT
風向・風速西 8m/s
視程10km以上
天気現象周辺でしゅう雨
全天の4割程度の雲 雲底高度 2130m
全天の8割程度の雲 雲底高度 3350m
24日20時 MDT から
風向・風速南西 6m/s
視程10km以上
少しの雲 雲底高度 2130m
全天の4割程度の雲 雲底高度 3660m
全天の8割程度の雲 雲底高度 4880m
25日0時 MDT から
風向・風速北北西 6m/s
視程10km以上
少しの雲 雲底高度 2740m
全天の4割程度の雲 雲底高度 4270m
25日2時 MDT から
風向・風速北 8m/s 瞬間風速 13m/s
視程10km以上
全天の4割程度の雲 雲底高度 610m
全天の4割程度の雲 雲底高度 3350m
25日4時 MDT から
風向・風速北北東 6m/s
視程10km以上
全天の8割程度の雲 雲底高度 460m
25日10時 MDT から
風向・風速北東 5m/s
視程10km以上
全天の4割程度の雲 雲底高度 910m
25日17時 MDT から
風向・風速東 6m/s
視程10km以上
少しの雲 雲底高度 1520m
KDEN 250019Z 2500/2606 26015KT P6SM VCSH SCT070 BKN110
FM250200 23011KT P6SM FEW070 SCT120 BKN160
FM250600 34012KT P6SM FEW090 SCT140
FM250800 01015G25KT P6SM SCT020 SCT110
FM251000 03012KT P6SM BKN015
FM251600 04010KT P6SM SCT030
FM252300 08011KT P6SM FEW050